Terminal Aerodrome Forecast
Issued by NWS

Home | Current Version | Previous Version | Text Only | Print | Product List | Glossary On
Versions: 1 2 3 4 5 6 7 8 9 10 11 12 13 14 15 16 17 18 19 20 21 22 23 24
000
FTUS43 KSGF 010800 AAA
TAFJLN
TAF AMD
KJLN 010816Z 0108/0206 15010KT P6SM OVC035 WS020/20045KT
     FM010900 32015G25KT 5SM -TSRA SCT025 OVC035CB
      TEMPO 0109/0113 2SM TSRA OVC025CB
     FM011400 20018G28KT P6SM BKN200
     FM012200 18010KT P6SM VCTS SCT040CB BKN100
      TEMPO 0122/0202 5SM -TSRA BR OVC040CB=

USA.gov is the U.S. government's official web portal to all federal, state and local government web resources and services.